createdAt,value
2022-12-03T00:00:38.239Z,10.68
2022-12-03T00:03:04.900Z,10.65
2022-12-03T00:05:31.693Z,10.62
2022-12-03T00:07:58.206Z,10.61
2022-12-03T00:10:24.838Z,10.63
2022-12-03T00:12:51.395Z,10.64
2022-12-03T00:15:18.049Z,10.63
2022-12-03T00:17:44.565Z,10.61
2022-12-03T00:20:21.303Z,10.61
2022-12-03T00:22:47.836Z,10.62
2022-12-03T00:25:14.467Z,10.65
2022-12-03T00:27:41.039Z,10.66
2022-12-03T00:30:08.828Z,10.69
2022-12-03T00:32:35.445Z,10.71
2022-12-03T00:35:01.972Z,10.69
2022-12-03T00:37:28.557Z,10.62
2022-12-03T00:39:55.051Z,10.61
2022-12-03T00:42:21.627Z,10.60
2022-12-03T00:44:48.263Z,10.62
2022-12-03T00:47:14.861Z,10.62
2022-12-03T00:49:41.495Z,10.64
2022-12-03T00:52:08.071Z,10.64
2022-12-03T00:54:34.625Z,10.64
2022-12-03T00:57:01.220Z,10.60
2022-12-03T00:59:27.876Z,10.56
2022-12-03T01:01:54.475Z,10.54
2022-12-03T01:04:21.263Z,10.53
2022-12-03T01:06:47.850Z,10.48
2022-12-03T01:09:14.408Z,10.43
2022-12-03T01:11:41.510Z,10.40
2022-12-03T01:14:11.106Z,10.35
2022-12-03T01:16:38.260Z,10.34
2022-12-03T01:19:06.131Z,10.33
2022-12-03T01:21:32.839Z,10.29
2022-12-03T01:23:59.684Z,10.27
2022-12-03T01:26:26.423Z,10.22
2022-12-03T01:28:53.346Z,10.14
2022-12-03T01:31:38.758Z,10.06
2022-12-03T01:34:06.016Z,9.98
2022-12-03T01:36:34.368Z,9.94
2022-12-03T01:39:01.818Z,9.93
2022-12-03T01:41:29.018Z,9.87
2022-12-03T01:43:56.556Z,9.80
2022-12-03T01:46:29.514Z,9.73
2022-12-03T01:48:56.359Z,9.70
2022-12-03T01:51:23.013Z,9.67
2022-12-03T01:53:49.878Z,9.61
2022-12-03T01:56:17.655Z,9.61
2022-12-03T01:58:44.999Z,9.58
2022-12-03T02:01:16.475Z,9.55
2022-12-03T02:03:44.194Z,9.58
2022-12-03T02:06:19.001Z,9.57
2022-12-03T02:08:46.495Z,9.51
2022-12-03T02:11:12.994Z,9.49
2022-12-03T02:13:39.853Z,9.44
2022-12-03T02:16:06.754Z,9.38
2022-12-03T02:18:33.387Z,9.30
2022-12-03T02:21:20.145Z,9.19
2022-12-03T02:23:50.687Z,9.12
2022-12-03T02:26:17.309Z,9.09
2022-12-03T02:28:44.047Z,9.00
2022-12-03T02:31:10.775Z,8.95
2022-12-03T02:33:37.483Z,8.91
2022-12-03T02:36:04.502Z,8.84
2022-12-03T02:38:32.602Z,8.77
2022-12-03T02:41:02.924Z,8.73
2022-12-03T02:43:29.528Z,8.69
2022-12-03T02:45:58.381Z,8.66
2022-12-03T02:48:30.260Z,8.63
2022-12-03T02:51:02.730Z,8.60
2022-12-03T02:53:32.073Z,8.59
2022-12-03T02:55:59.677Z,8.58
2022-12-03T02:58:27.679Z,8.56
2022-12-03T03:00:55.050Z,8.54
2022-12-03T03:03:22.554Z,8.53
2022-12-03T03:05:49.493Z,8.51
2022-12-03T03:08:16.866Z,8.45
2022-12-03T03:10:44.218Z,8.40
2022-12-03T03:13:13.861Z,8.36
2022-12-03T03:15:41.245Z,8.31
2022-12-03T03:18:08.984Z,8.32
2022-12-03T03:20:35.696Z,8.32
2022-12-03T03:23:11.089Z,8.35
2022-12-03T03:25:43.436Z,8.33
2022-12-03T03:28:10.436Z,8.34
2022-12-03T03:30:39.087Z,8.34
2022-12-03T03:33:05.764Z,8.33
2022-12-03T03:35:32.628Z,8.38
2022-12-03T03:37:59.570Z,8.45
2022-12-03T03:40:26.456Z,8.48
2022-12-03T03:42:53.141Z,8.46
2022-12-03T03:45:24.000Z,8.50
2022-12-03T03:47:54.062Z,8.44
2022-12-03T03:50:20.723Z,8.37
2022-12-03T03:52:47.268Z,8.34
2022-12-03T03:55:13.787Z,8.33
2022-12-03T03:57:40.352Z,8.31
2022-12-03T04:00:08.177Z,8.34
2022-12-03T04:02:34.949Z,8.35
2022-12-03T04:05:01.526Z,8.42
2022-12-03T04:07:28.721Z,8.42
2022-12-03T04:09:55.269Z,8.40
2022-12-03T04:12:40.182Z,8.36
2022-12-03T04:15:08.070Z,8.33
2022-12-03T04:17:34.583Z,8.33
2022-12-03T04:20:01.144Z,8.31
2022-12-03T04:22:42.688Z,8.29
2022-12-03T04:25:28.882Z,8.27
2022-12-03T04:28:14.179Z,8.25
2022-12-03T04:30:40.830Z,8.21
2022-12-03T04:33:25.856Z,8.24
2022-12-03T04:35:52.992Z,8.28
2022-12-03T04:38:19.645Z,8.27
2022-12-03T04:41:15.179Z,8.26
2022-12-03T04:44:01.688Z,8.23
2022-12-03T04:46:28.517Z,8.21
2022-12-03T04:48:55.148Z,8.23
2022-12-03T04:51:21.726Z,8.26
2022-12-03T04:53:48.242Z,8.28
2022-12-03T04:56:14.760Z,8.30
2022-12-03T04:58:41.275Z,8.30
2022-12-03T05:01:07.872Z,8.34
2022-12-03T05:03:34.512Z,8.34
2022-12-03T05:06:00.979Z,8.36
2022-12-03T05:08:27.479Z,8.40
2022-12-03T05:10:54.052Z,8.46
2022-12-03T05:13:20.586Z,8.46
2022-12-03T05:15:47.120Z,8.51
2022-12-03T05:18:13.628Z,8.52
2022-12-03T05:20:46.966Z,8.53
2022-12-03T05:23:18.007Z,8.47
2022-12-03T05:25:44.548Z,8.46
2022-12-03T05:28:11.075Z,8.45
2022-12-03T05:30:37.783Z,8.40
2022-12-03T05:33:04.349Z,8.31
2022-12-03T05:35:31.707Z,8.29
2022-12-03T05:37:58.407Z,8.23
2022-12-03T05:40:25.031Z,8.21
2022-12-03T05:42:54.543Z,8.21
2022-12-03T05:45:23.464Z,8.21
2022-12-03T05:47:50.035Z,8.21
2022-12-03T05:50:16.807Z,8.21
2022-12-03T05:52:43.412Z,8.25
2022-12-03T05:55:11.122Z,8.26
2022-12-03T05:57:38.402Z,8.20
2022-12-03T06:00:07.890Z,8.25
2022-12-03T06:02:34.603Z,8.22
2022-12-03T06:05:01.172Z,8.24
2022-12-03T06:07:27.741Z,8.25
2022-12-03T06:09:54.324Z,8.25
2022-12-03T06:12:20.903Z,8.24
2022-12-03T06:14:47.488Z,8.24
2022-12-03T06:17:13.977Z,8.25
2022-12-03T06:19:40.606Z,8.24
2022-12-03T06:22:07.295Z,8.27
2022-12-03T06:24:33.779Z,8.31
2022-12-03T06:27:00.361Z,8.37
2022-12-03T06:29:26.988Z,8.38
2022-12-03T06:31:53.549Z,8.30
2022-12-03T06:34:20.087Z,8.19
2022-12-03T06:36:46.994Z,8.06
2022-12-03T06:39:13.626Z,7.98
2022-12-03T06:41:40.227Z,7.87
2022-12-03T06:44:06.789Z,7.81
2022-12-03T06:46:33.359Z,7.78
2022-12-03T06:49:00.006Z,7.77
2022-12-03T06:51:26.729Z,7.76
2022-12-03T06:53:53.392Z,7.76
2022-12-03T06:56:22.325Z,7.75
2022-12-03T06:58:49.312Z,7.75
2022-12-03T07:01:15.957Z,7.76
2022-12-03T07:03:42.552Z,7.81
2022-12-03T07:06:09.234Z,7.82
2022-12-03T07:08:35.693Z,7.83
2022-12-03T07:11:02.221Z,7.85
2022-12-03T07:13:28.791Z,7.88
2022-12-03T07:15:57.716Z,7.91
2022-12-03T07:18:24.504Z,7.96
2022-12-03T07:20:51.012Z,7.99
2022-12-03T07:23:17.504Z,8.03
2022-12-03T07:25:44.020Z,8.07
2022-12-03T07:28:10.519Z,8.13
2022-12-03T07:30:37.110Z,8.14
2022-12-03T07:33:03.665Z,8.14
2022-12-03T07:35:30.264Z,8.13
2022-12-03T07:37:56.798Z,8.17
2022-12-03T07:40:23.341Z,8.18
2022-12-03T07:42:49.813Z,8.12
2022-12-03T07:45:16.380Z,8.05
2022-12-03T07:47:42.931Z,8.09
2022-12-03T07:50:10.111Z,8.16
2022-12-03T07:52:36.590Z,8.19
2022-12-03T07:55:03.162Z,8.20
2022-12-03T07:57:29.750Z,8.19
2022-12-03T07:59:56.282Z,8.18
2022-12-03T08:02:22.952Z,8.20
2022-12-03T08:04:49.535Z,8.20
2022-12-03T08:07:16.779Z,8.20
2022-12-03T08:09:43.546Z,8.17
2022-12-03T08:12:16.702Z,8.17
2022-12-03T08:14:43.912Z,8.20
2022-12-03T08:17:12.547Z,8.23
2022-12-03T08:19:39.132Z,8.26
2022-12-03T08:22:13.571Z,8.27
2022-12-03T08:24:40.234Z,8.30
2022-12-03T08:27:17.414Z,8.35
2022-12-03T08:29:44.254Z,8.39
2022-12-03T08:32:11.910Z,8.40
2022-12-03T08:34:43.151Z,8.43
2022-12-03T08:37:18.204Z,8.49
2022-12-03T08:39:49.572Z,8.56
2022-12-03T08:42:41.371Z,8.64
2022-12-03T08:45:23.301Z,8.71
2022-12-03T08:47:49.767Z,8.74
2022-12-03T08:50:30.080Z,8.74
2022-12-03T08:53:17.678Z,8.75
2022-12-03T08:55:51.670Z,8.83
2022-12-03T08:58:44.434Z,8.85
2022-12-03T09:01:11.028Z,8.89
2022-12-03T09:03:39.641Z,8.87
2022-12-03T09:06:06.601Z,8.83
2022-12-03T09:08:33.129Z,8.82
2022-12-03T09:10:59.691Z,8.86
2022-12-03T09:13:26.178Z,8.89
2022-12-03T09:15:52.648Z,8.92
2022-12-03T09:18:19.269Z,8.93
2022-12-03T09:20:45.856Z,8.94
2022-12-03T09:23:12.411Z,8.94
2022-12-03T09:25:38.971Z,8.97
2022-12-03T09:28:05.503Z,8.97
2022-12-03T09:30:31.993Z,8.96
2022-12-03T09:33:00.017Z,8.85
2022-12-03T09:35:27.457Z,8.68
2022-12-03T09:37:54.169Z,8.59
2022-12-03T09:40:21.159Z,8.58
2022-12-03T09:42:47.867Z,8.59
2022-12-03T09:45:15.630Z,8.62
2022-12-03T09:47:47.950Z,8.64
2022-12-03T09:50:17.238Z,8.60
2022-12-03T09:52:45.193Z,8.60
2022-12-03T09:55:15.248Z,8.62
2022-12-03T09:57:41.679Z,8.60
2022-12-03T10:00:19.909Z,8.61
2022-12-03T10:02:47.756Z,8.58
2022-12-03T10:05:14.905Z,8.54
2022-12-03T10:07:42.291Z,8.52
2022-12-03T10:10:18.709Z,8.53
2022-12-03T10:12:45.671Z,8.55
2022-12-03T10:15:17.499Z,8.59
2022-12-03T10:17:44.402Z,8.61
2022-12-03T10:20:13.594Z,8.66
2022-12-03T10:22:40.430Z,8.72
2022-12-03T10:25:12.823Z,8.72
2022-12-03T10:27:40.265Z,8.72
2022-12-03T10:30:19.698Z,8.70
2022-12-03T10:32:48.988Z,8.66
2022-12-03T10:35:20.819Z,8.65
2022-12-03T10:38:02.052Z,8.70
2022-12-03T10:40:33.635Z,8.73
2022-12-03T10:43:18.520Z,8.74
2022-12-03T10:46:10.866Z,8.75
2022-12-03T10:48:37.430Z,8.74
2022-12-03T10:51:07.123Z,8.78
2022-12-03T10:53:36.560Z,8.77
2022-12-03T10:56:05.357Z,8.75
2022-12-03T10:58:37.382Z,8.78
2022-12-03T11:01:22.200Z,8.79
2022-12-03T11:03:49.136Z,8.78
2022-12-03T11:06:17.680Z,8.79
2022-12-03T11:08:49.196Z,8.81
2022-12-03T11:11:24.739Z,8.80
2022-12-03T11:14:02.013Z,8.78
2022-12-03T11:16:40.810Z,8.75
2022-12-03T11:19:13.067Z,8.76
2022-12-03T11:22:07.046Z,8.78
2022-12-03T11:24:35.469Z,8.79
2022-12-03T11:27:01.942Z,8.78
2022-12-03T11:30:00.537Z,8.80
2022-12-03T11:32:39.679Z,8.82
2022-12-03T11:35:12.742Z,8.87
2022-12-03T11:37:39.330Z,8.89
2022-12-03T11:40:18.184Z,8.89
2022-12-03T11:42:46.519Z,8.91
2022-12-03T11:45:17.692Z,8.98
2022-12-03T11:47:46.042Z,9.05
2022-12-03T11:50:40.213Z,9.13
2022-12-03T11:53:20.195Z,9.20
2022-12-03T11:55:52.063Z,9.23
2022-12-03T11:58:39.243Z,9.25
2022-12-03T12:01:07.378Z,9.23
2022-12-03T12:03:44.345Z,9.18
2022-12-03T12:06:15.998Z,9.11
2022-12-03T12:08:56.623Z,9.03
2022-12-03T12:11:43.748Z,8.91
2022-12-03T12:14:13.703Z,8.85
2022-12-03T12:16:51.467Z,8.83
2022-12-03T12:19:43.586Z,8.84
2022-12-03T12:22:16.290Z,8.86
2022-12-03T12:24:51.358Z,8.89
2022-12-03T12:27:30.627Z,8.90
2022-12-03T12:30:04.841Z,8.90
2022-12-03T12:32:33.625Z,8.91
2022-12-03T12:35:15.185Z,8.93
2022-12-03T12:37:58.204Z,8.93
2022-12-03T12:40:29.110Z,8.95
2022-12-03T12:43:10.052Z,8.99
2022-12-03T12:45:42.065Z,9.03
2022-12-03T12:48:29.180Z,9.09
2022-12-03T12:51:08.859Z,9.12
2022-12-03T12:53:37.018Z,9.13
2022-12-03T12:56:27.931Z,9.16
2022-12-03T12:58:54.701Z,9.23
2022-12-03T13:01:26.034Z,9.29
2022-12-03T13:03:53.030Z,9.33
2022-12-03T13:06:26.666Z,9.39
2022-12-03T13:08:53.983Z,9.44
2022-12-03T13:11:41.416Z,9.50
2022-12-03T13:14:18.581Z,9.55
2022-12-03T13:16:47.326Z,9.61
2022-12-03T13:19:27.893Z,9.65
2022-12-03T13:22:00.293Z,9.73
2022-12-03T13:24:29.686Z,9.79
2022-12-03T13:26:57.154Z,9.83
2022-12-03T13:29:24.061Z,9.85
2022-12-03T13:31:53.284Z,9.88
2022-12-03T13:34:22.850Z,9.91
2022-12-03T13:36:57.193Z,9.93
2022-12-03T13:39:35.444Z,9.98
2022-12-03T13:42:26.696Z,10.00
2022-12-03T13:44:53.490Z,10.02
2022-12-03T13:47:21.725Z,10.04
2022-12-03T13:49:57.034Z,10.07
2022-12-03T13:52:26.882Z,10.09
2022-12-03T13:54:55.335Z,10.10
2022-12-03T13:57:21.976Z,10.08
2022-12-03T13:59:48.813Z,10.03
2022-12-03T14:02:15.475Z,9.94
2022-12-03T14:04:42.097Z,9.86
2022-12-03T14:07:08.575Z,9.81
2022-12-03T14:09:35.103Z,9.81
2022-12-03T14:12:20.186Z,9.81
2022-12-03T14:14:46.730Z,9.80
2022-12-03T14:17:13.365Z,9.83
2022-12-03T14:19:40.087Z,9.86
2022-12-03T14:22:08.792Z,9.89
2022-12-03T14:24:36.085Z,9.89
2022-12-03T14:27:02.559Z,9.90
2022-12-03T14:29:29.321Z,9.90
2022-12-03T14:31:55.998Z,9.88
2022-12-03T14:34:22.655Z,9.92
2022-12-03T14:36:49.268Z,9.94
2022-12-03T14:39:15.880Z,10.01
2022-12-03T14:42:00.870Z,10.08
2022-12-03T14:44:27.434Z,10.12
2022-12-03T14:46:57.087Z,10.15
2022-12-03T14:49:24.120Z,10.14
2022-12-03T14:51:50.689Z,10.16
2022-12-03T14:54:17.250Z,10.19
2022-12-03T14:56:43.818Z,10.19
2022-12-03T14:59:10.575Z,10.19
2022-12-03T15:01:37.175Z,10.18
2022-12-03T15:04:03.817Z,10.16
2022-12-03T15:06:30.410Z,10.16
2022-12-03T15:08:56.930Z,10.14
2022-12-03T15:11:23.434Z,10.03
2022-12-03T15:13:50.108Z,9.88
2022-12-03T15:16:16.794Z,9.80
2022-12-03T15:18:43.607Z,9.74
2022-12-03T15:21:10.231Z,9.71
2022-12-03T15:23:36.908Z,9.70
2022-12-03T15:26:03.687Z,9.72
2022-12-03T15:28:30.281Z,9.75
2022-12-03T15:30:56.924Z,9.78
2022-12-03T15:33:23.589Z,9.78
2022-12-03T15:35:50.162Z,9.77
2022-12-03T15:38:16.751Z,9.75
2022-12-03T15:40:43.515Z,9.68
2022-12-03T15:43:10.205Z,9.66
2022-12-03T15:45:36.976Z,9.61
2022-12-03T15:48:04.290Z,9.59
2022-12-03T15:50:33.537Z,9.55
2022-12-03T15:53:02.261Z,9.53
2022-12-03T15:55:28.862Z,9.58
2022-12-03T15:57:55.473Z,9.66
2022-12-03T16:00:22.404Z,9.77
2022-12-03T16:02:52.659Z,9.84
2022-12-03T16:05:19.812Z,9.89
2022-12-03T16:07:46.448Z,9.92
2022-12-03T16:10:13.158Z,9.94
2022-12-03T16:12:39.681Z,9.91
2022-12-03T16:15:07.455Z,9.88
2022-12-03T16:17:34.027Z,9.87
2022-12-03T16:20:00.525Z,9.86
2022-12-03T16:22:27.059Z,9.86
2022-12-03T16:24:53.554Z,9.85
2022-12-03T16:27:25.318Z,9.86
2022-12-03T16:29:53.156Z,9.86
2022-12-03T16:32:19.854Z,9.86
2022-12-03T16:34:46.340Z,9.89
2022-12-03T16:37:12.964Z,9.91
2022-12-03T16:39:39.482Z,9.93
2022-12-03T16:42:10.188Z,9.93
2022-12-03T16:44:59.344Z,9.92
2022-12-03T16:47:30.605Z,9.89
2022-12-03T16:50:00.698Z,9.88
2022-12-03T16:52:27.375Z,9.90
2022-12-03T16:54:53.910Z,9.95
2022-12-03T16:57:20.566Z,9.99
2022-12-03T16:59:47.090Z,10.00
2022-12-03T17:02:13.837Z,10.02
2022-12-03T17:04:40.583Z,9.94
2022-12-03T17:07:07.074Z,9.86
2022-12-03T17:09:33.562Z,9.78
2022-12-03T17:12:00.138Z,9.71
2022-12-03T17:14:31.605Z,9.70
2022-12-03T17:16:59.893Z,9.70
2022-12-03T17:19:26.462Z,9.70
2022-12-03T17:21:54.097Z,9.73
2022-12-03T17:24:21.420Z,9.74
2022-12-03T17:26:47.975Z,9.73
2022-12-03T17:29:14.540Z,9.70
2022-12-03T17:31:42.542Z,9.68
2022-12-03T17:34:09.654Z,9.70
2022-12-03T17:36:36.261Z,9.81
2022-12-03T17:39:02.955Z,9.91
2022-12-03T17:41:29.511Z,9.98
2022-12-03T17:43:56.108Z,10.00
2022-12-03T17:46:22.822Z,10.02
2022-12-03T17:48:49.799Z,10.07
2022-12-03T17:51:16.428Z,10.10
2022-12-03T17:53:42.988Z,10.10
2022-12-03T17:56:09.662Z,10.11
2022-12-03T17:58:36.224Z,10.12
2022-12-03T18:01:03.490Z,10.11
2022-12-03T18:03:30.890Z,10.11
2022-12-03T18:05:57.469Z,10.12
2022-12-03T18:08:24.035Z,10.16
2022-12-03T18:10:50.620Z,10.18
2022-12-03T18:13:17.252Z,10.17
2022-12-03T18:15:43.925Z,10.17
2022-12-03T18:18:10.938Z,10.20
2022-12-03T18:20:37.524Z,10.23
2022-12-03T18:23:04.211Z,10.25
2022-12-03T18:25:31.003Z,10.25
2022-12-03T18:27:57.663Z,10.19
2022-12-03T18:30:24.295Z,10.18
2022-12-03T18:32:50.955Z,10.18
2022-12-03T18:35:18.286Z,10.19
2022-12-03T18:37:44.998Z,10.22
2022-12-03T18:40:20.067Z,10.25
2022-12-03T18:42:47.139Z,10.27
2022-12-03T18:45:15.048Z,10.30
2022-12-03T18:47:41.717Z,10.32
2022-12-03T18:50:09.574Z,10.35
2022-12-03T18:52:36.077Z,10.36
2022-12-03T18:55:02.853Z,10.43
2022-12-03T18:57:29.386Z,10.43
2022-12-03T18:59:56.278Z,10.43
2022-12-03T19:05:10.033Z,10.39
2022-12-03T19:07:36.925Z,10.36
2022-12-03T19:10:03.953Z,10.35
2022-12-03T19:12:31.198Z,10.36
2022-12-03T19:14:57.804Z,10.37
2022-12-03T19:17:24.409Z,10.39
2022-12-03T19:19:50.866Z,10.38
2022-12-03T19:22:17.381Z,10.39
2022-12-03T19:24:43.910Z,10.34
2022-12-03T19:27:10.414Z,10.29
2022-12-03T19:29:36.950Z,10.30
2022-12-03T19:32:03.729Z,10.33
2022-12-03T19:34:30.437Z,10.36
2022-12-03T19:36:57.013Z,10.36
2022-12-03T19:39:24.203Z,10.35
2022-12-03T19:41:50.701Z,10.31
2022-12-03T19:44:18.582Z,10.32
2022-12-03T19:46:45.455Z,10.32
2022-12-03T19:49:12.175Z,10.32
2022-12-03T19:51:38.831Z,10.33
2022-12-03T19:54:06.935Z,10.34
2022-12-03T19:56:34.040Z,10.31
2022-12-03T19:59:00.847Z,10.31
2022-12-03T20:01:30.181Z,10.32
2022-12-03T20:03:58.239Z,10.32
2022-12-03T20:06:27.510Z,10.32
2022-12-03T20:08:58.924Z,10.32
2022-12-03T20:11:28.293Z,10.33
2022-12-03T20:13:57.679Z,10.36
2022-12-03T20:16:25.838Z,10.38
2022-12-03T20:18:56.335Z,10.38
2022-12-03T20:21:22.851Z,10.38
2022-12-03T20:23:49.450Z,10.39
2022-12-03T20:26:18.780Z,10.40
2022-12-03T20:28:46.100Z,10.40
2022-12-03T20:31:15.458Z,10.40
2022-12-03T20:33:44.261Z,10.41
2022-12-03T20:36:11.792Z,10.42
2022-12-03T20:38:38.856Z,10.43
2022-12-03T20:41:09.471Z,10.43
2022-12-03T20:43:36.417Z,10.43
2022-12-03T20:46:09.332Z,10.44
2022-12-03T20:48:36.195Z,10.46
2022-12-03T20:51:04.959Z,10.48
2022-12-03T20:53:31.585Z,10.48
2022-12-03T20:55:59.161Z,10.47
2022-12-03T20:58:26.159Z,10.45
2022-12-03T21:00:52.792Z,10.46
2022-12-03T21:03:19.439Z,10.47
2022-12-03T21:05:46.101Z,10.43
2022-12-03T21:08:12.728Z,10.38
2022-12-03T21:10:46.342Z,10.35
2022-12-03T21:13:18.473Z,10.34
2022-12-03T21:15:45.721Z,10.32
2022-12-03T21:18:14.550Z,10.27
2022-12-03T21:20:46.355Z,10.22
2022-12-03T21:23:13.980Z,10.18
2022-12-03T21:25:40.855Z,10.14
2022-12-03T21:28:08.932Z,10.10
2022-12-03T21:30:39.927Z,9.95
2022-12-03T21:33:06.927Z,9.72
2022-12-03T21:35:36.756Z,9.54
2022-12-03T21:38:03.639Z,9.45
2022-12-03T21:40:30.320Z,9.46
2022-12-03T21:42:57.597Z,9.58
2022-12-03T21:45:25.081Z,9.67
2022-12-03T21:47:51.966Z,9.74
2022-12-03T21:50:18.742Z,9.79
2022-12-03T21:52:45.267Z,9.81
2022-12-03T21:55:11.925Z,9.83
2022-12-03T21:57:38.430Z,9.87
2022-12-03T22:00:08.931Z,9.87
2022-12-03T22:02:35.561Z,9.88
2022-12-03T22:05:02.100Z,9.91
2022-12-03T22:07:28.708Z,10.00
2022-12-03T22:09:55.556Z,10.09
2022-12-03T22:12:22.279Z,10.14
2022-12-03T22:14:48.850Z,10.19
2022-12-03T22:17:15.349Z,10.22
2022-12-03T22:19:42.444Z,10.24
2022-12-03T22:22:08.987Z,10.25
2022-12-03T22:24:35.561Z,10.26
2022-12-03T22:27:03.978Z,10.25
2022-12-03T22:29:30.819Z,10.26
2022-12-03T22:31:57.389Z,10.26
2022-12-03T22:34:24.105Z,10.27
2022-12-03T22:36:50.648Z,10.29
2022-12-03T22:39:17.225Z,10.32
2022-12-03T22:41:43.830Z,10.34
2022-12-03T22:44:10.549Z,10.35
2022-12-03T22:46:37.214Z,10.39
2022-12-03T22:49:07.478Z,10.39
2022-12-03T22:51:34.752Z,10.39
2022-12-03T22:54:01.889Z,10.38
2022-12-03T22:56:30.396Z,10.40
2022-12-03T22:58:57.331Z,10.42
2022-12-03T23:01:26.658Z,10.45
2022-12-03T23:03:53.375Z,10.47
2022-12-03T23:06:20.434Z,10.49
2022-12-03T23:08:47.367Z,10.49
2022-12-03T23:11:14.406Z,10.50
2022-12-03T23:13:41.022Z,10.53
2022-12-03T23:16:15.139Z,10.53
2022-12-03T23:18:42.082Z,10.54
2022-12-03T23:21:08.704Z,10.54
2022-12-03T23:23:35.219Z,10.54
2022-12-03T23:26:07.286Z,10.55
2022-12-03T23:28:34.537Z,10.55
2022-12-03T23:31:01.427Z,10.58
2022-12-03T23:33:28.678Z,10.61
2022-12-03T23:35:55.480Z,10.62
2022-12-03T23:38:22.378Z,10.63
2022-12-03T23:40:48.962Z,10.65
2022-12-03T23:43:16.406Z,10.67
2022-12-03T23:45:43.101Z,10.68
2022-12-03T23:48:09.666Z,10.69
2022-12-03T23:50:39.641Z,10.71
2022-12-03T23:53:06.164Z,10.73
2022-12-03T23:55:32.935Z,10.76
2022-12-03T23:57:59.434Z,10.79
